sensor_id;sensor_type;location;lat;lon;timestamp;P1;durP1;ratioP1;P2;durP2;ratioP2
37239;SDS011;23130;48.760;9.178;2023-06-26T00:00:45;8.05;;;6.68;;
37239;SDS011;23130;48.760;9.178;2023-06-26T00:03:12;9.88;;;7.47;;
37239;SDS011;23130;48.760;9.178;2023-06-26T00:05:40;9.68;;;6.88;;
37239;SDS011;23130;48.760;9.178;2023-06-26T00:08:08;8.07;;;6.72;;
37239;SDS011;23130;48.760;9.178;2023-06-26T00:10:34;8.18;;;6.30;;
37239;SDS011;23130;48.760;9.178;2023-06-26T00:12:59;10.00;;;6.65;;
37239;SDS011;23130;48.760;9.178;2023-06-26T00:15:25;9.38;;;7.55;;
37239;SDS011;23130;48.760;9.178;2023-06-26T00:17:52;10.73;;;6.72;;
37239;SDS011;23130;48.760;9.178;2023-06-26T00:20:17;8.73;;;6.45;;
37239;SDS011;23130;48.760;9.178;2023-06-26T00:22:43;9.18;;;7.40;;
37239;SDS011;23130;48.760;9.178;2023-06-26T00:25:10;9.57;;;7.07;;
37239;SDS011;23130;48.760;9.178;2023-06-26T00:27:35;8.80;;;6.57;;
37239;SDS011;23130;48.760;9.178;2023-06-26T00:30:02;10.30;;;6.70;;
37239;SDS011;23130;48.760;9.178;2023-06-26T00:32:28;10.15;;;7.18;;
37239;SDS011;23130;48.760;9.178;2023-06-26T00:34:54;8.70;;;6.47;;
37239;SDS011;23130;48.760;9.178;2023-06-26T00:37:19;9.75;;;7.22;;
37239;SDS011;23130;48.760;9.178;2023-06-26T00:39:46;10.38;;;7.25;;
37239;SDS011;23130;48.760;9.178;2023-06-26T00:42:12;9.93;;;6.28;;
37239;SDS011;23130;48.760;9.178;2023-06-26T00:44:37;9.30;;;6.85;;
37239;SDS011;23130;48.760;9.178;2023-06-26T00:47:03;9.85;;;6.57;;
37239;SDS011;23130;48.760;9.178;2023-06-26T00:49:31;9.00;;;6.90;;
37239;SDS011;23130;48.760;9.178;2023-06-26T00:51:57;10.57;;;7.35;;
37239;SDS011;23130;48.760;9.178;2023-06-26T00:54:22;10.35;;;7.03;;
37239;SDS011;23130;48.760;9.178;2023-06-26T00:56:48;10.27;;;6.90;;
37239;SDS011;23130;48.760;9.178;2023-06-26T00:59:14;8.32;;;6.72;;
37239;SDS011;23130;48.760;9.178;2023-06-26T01:01:40;8.40;;;6.45;;
37239;SDS011;23130;48.760;9.178;2023-06-26T01:04:05;9.13;;;7.07;;
37239;SDS011;23130;48.760;9.178;2023-06-26T01:06:31;9.73;;;6.57;;
37239;SDS011;23130;48.760;9.178;2023-06-26T01:09:01;8.15;;;5.80;;
37239;SDS011;23130;48.760;9.178;2023-06-26T01:11:28;8.30;;;6.88;;
37239;SDS011;23130;48.760;9.178;2023-06-26T01:13:53;10.20;;;7.35;;
37239;SDS011;23130;48.760;9.178;2023-06-26T01:16:21;8.48;;;6.47;;
37239;SDS011;23130;48.760;9.178;2023-06-26T01:18:48;11.38;;;7.25;;
37239;SDS011;23130;48.760;9.178;2023-06-26T01:21:14;9.18;;;6.72;;
37239;SDS011;23130;48.760;9.178;2023-06-26T01:24:02;10.40;;;6.55;;
37239;SDS011;23130;48.760;9.178;2023-06-26T01:26:34;10.82;;;6.65;;
37239;SDS011;23130;48.760;9.178;2023-06-26T01:29:02;11.13;;;6.38;;
37239;SDS011;23130;48.760;9.178;2023-06-26T01:31:31;8.30;;;5.93;;
37239;SDS011;23130;48.760;9.178;2023-06-26T01:33:58;7.18;;;5.82;;
37239;SDS011;23130;48.760;9.178;2023-06-26T01:36:24;9.10;;;7.38;;
37239;SDS011;23130;48.760;9.178;2023-06-26T01:38:50;9.52;;;6.88;;
37239;SDS011;23130;48.760;9.178;2023-06-26T01:41:16;8.25;;;6.30;;
37239;SDS011;23130;48.760;9.178;2023-06-26T01:47:00;8.07;;;6.32;;
37239;SDS011;23130;48.760;9.178;2023-06-26T01:54:47;8.60;;;6.13;;
37239;SDS011;23130;48.760;9.178;2023-06-26T01:57:23;8.35;;;6.55;;
37239;SDS011;23130;48.760;9.178;2023-06-26T01:59:53;10.13;;;6.38;;
37239;SDS011;23130;48.760;9.178;2023-06-26T02:02:20;8.40;;;6.10;;
37239;SDS011;23130;48.760;9.178;2023-06-26T02:04:48;8.43;;;5.93;;
37239;SDS011;23130;48.760;9.178;2023-06-26T02:07:14;8.57;;;6.20;;
37239;SDS011;23130;48.760;9.178;2023-06-26T02:09:40;9.35;;;6.50;;
37239;SDS011;23130;48.760;9.178;2023-06-26T02:12:05;7.85;;;6.18;;
37239;SDS011;23130;48.760;9.178;2023-06-26T02:14:31;9.15;;;7.10;;
37239;SDS011;23130;48.760;9.178;2023-06-26T02:16:57;16.55;;;7.45;;
37239;SDS011;23130;48.760;9.178;2023-06-26T02:19:23;8.00;;;6.20;;
37239;SDS011;23130;48.760;9.178;2023-06-26T02:21:50;10.50;;;6.47;;
37239;SDS011;23130;48.760;9.178;2023-06-26T02:24:15;9.52;;;7.10;;
37239;SDS011;23130;48.760;9.178;2023-06-26T02:26:41;9.90;;;6.63;;
37239;SDS011;23130;48.760;9.178;2023-06-26T02:29:06;8.90;;;6.10;;
37239;SDS011;23130;48.760;9.178;2023-06-26T02:31:32;8.98;;;6.82;;
37239;SDS011;23130;48.760;9.178;2023-06-26T02:33:58;7.97;;;6.15;;
37239;SDS011;23130;48.760;9.178;2023-06-26T02:36:23;8.32;;;6.10;;
37239;SDS011;23130;48.760;9.178;2023-06-26T02:38:49;8.23;;;6.90;;
37239;SDS011;23130;48.760;9.178;2023-06-26T02:41:14;10.73;;;6.72;;
37239;SDS011;23130;48.760;9.178;2023-06-26T02:43:40;9.13;;;6.68;;
37239;SDS011;23130;48.760;9.178;2023-06-26T02:46:05;7.65;;;5.88;;
37239;SDS011;23130;48.760;9.178;2023-06-26T02:48:31;8.50;;;6.88;;
37239;SDS011;23130;48.760;9.178;2023-06-26T02:50:56;8.98;;;6.22;;
37239;SDS011;23130;48.760;9.178;2023-06-26T02:53:22;9.23;;;6.53;;
37239;SDS011;23130;48.760;9.178;2023-06-26T02:55:48;7.68;;;6.03;;
37239;SDS011;23130;48.760;9.178;2023-06-26T02:58:13;8.38;;;6.13;;
37239;SDS011;23130;48.760;9.178;2023-06-26T03:00:39;9.23;;;6.10;;
37239;SDS011;23130;48.760;9.178;2023-06-26T03:03:06;9.93;;;6.20;;
37239;SDS011;23130;48.760;9.178;2023-06-26T03:05:32;8.50;;;6.15;;
37239;SDS011;23130;48.760;9.178;2023-06-26T03:07:58;8.35;;;6.47;;
37239;SDS011;23130;48.760;9.178;2023-06-26T03:10:23;9.50;;;6.97;;
37239;SDS011;23130;48.760;9.178;2023-06-26T03:12:49;10.02;;;6.78;;
37239;SDS011;23130;48.760;9.178;2023-06-26T03:15:15;9.63;;;6.13;;
37239;SDS011;23130;48.760;9.178;2023-06-26T03:17:40;9.52;;;6.50;;
37239;SDS011;23130;48.760;9.178;2023-06-26T03:20:06;9.27;;;6.18;;
37239;SDS011;23130;48.760;9.178;2023-06-26T03:22:33;7.95;;;6.22;;
37239;SDS011;23130;48.760;9.178;2023-06-26T03:24:58;8.40;;;6.32;;
37239;SDS011;23130;48.760;9.178;2023-06-26T03:27:24;9.43;;;6.32;;
37239;SDS011;23130;48.760;9.178;2023-06-26T03:29:51;8.15;;;6.22;;
37239;SDS011;23130;48.760;9.178;2023-06-26T03:32:17;8.32;;;6.28;;
37239;SDS011;23130;48.760;9.178;2023-06-26T03:34:43;10.45;;;7.65;;
37239;SDS011;23130;48.760;9.178;2023-06-26T03:37:08;7.43;;;5.63;;
37239;SDS011;23130;48.760;9.178;2023-06-26T03:39:34;8.13;;;5.93;;
37239;SDS011;23130;48.760;9.178;2023-06-26T03:42:00;7.72;;;6.00;;
37239;SDS011;23130;48.760;9.178;2023-06-26T03:44:26;10.57;;;6.65;;
37239;SDS011;23130;48.760;9.178;2023-06-26T03:46:52;7.65;;;6.60;;
37239;SDS011;23130;48.760;9.178;2023-06-26T03:49:18;9.23;;;6.53;;
37239;SDS011;23130;48.760;9.178;2023-06-26T03:51:44;9.68;;;6.15;;
37239;SDS011;23130;48.760;9.178;2023-06-26T03:54:10;8.07;;;6.55;;
37239;SDS011;23130;48.760;9.178;2023-06-26T03:56:35;9.60;;;7.13;;
37239;SDS011;23130;48.760;9.178;2023-06-26T03:59:01;7.45;;;5.78;;
37239;SDS011;23130;48.760;9.178;2023-06-26T04:01:27;7.93;;;6.18;;
37239;SDS011;23130;48.760;9.178;2023-06-26T04:03:52;9.25;;;6.07;;
37239;SDS011;23130;48.760;9.178;2023-06-26T04:06:18;8.20;;;5.65;;
37239;SDS011;23130;48.760;9.178;2023-06-26T04:08:44;8.10;;;6.05;;
37239;SDS011;23130;48.760;9.178;2023-06-26T04:11:09;8.52;;;6.63;;
37239;SDS011;23130;48.760;9.178;2023-06-26T04:13:38;7.93;;;5.97;;
37239;SDS011;23130;48.760;9.178;2023-06-26T04:16:04;7.80;;;5.80;;
37239;SDS011;23130;48.760;9.178;2023-06-26T04:18:31;7.50;;;5.60;;
37239;SDS011;23130;48.760;9.178;2023-06-26T04:21:07;7.00;;;5.60;;
37239;SDS011;23130;48.760;9.178;2023-06-26T04:23:37;7.57;;;5.82;;
37239;SDS011;23130;48.760;9.178;2023-06-26T04:26:04;7.80;;;5.45;;
37239;SDS011;23130;48.760;9.178;2023-06-26T04:28:33;8.07;;;5.47;;
37239;SDS011;23130;48.760;9.178;2023-06-26T04:31:00;7.95;;;6.60;;
37239;SDS011;23130;48.760;9.178;2023-06-26T04:33:27;8.48;;;6.25;;
37239;SDS011;23130;48.760;9.178;2023-06-26T04:35:54;6.85;;;6.07;;
37239;SDS011;23130;48.760;9.178;2023-06-26T04:38:20;7.60;;;6.03;;
37239;SDS011;23130;48.760;9.178;2023-06-26T04:40:46;8.57;;;5.88;;
37239;SDS011;23130;48.760;9.178;2023-06-26T04:43:15;7.28;;;5.57;;
37239;SDS011;23130;48.760;9.178;2023-06-26T04:45:41;6.88;;;6.18;;
37239;SDS011;23130;48.760;9.178;2023-06-26T04:48:07;7.63;;;5.72;;
37239;SDS011;23130;48.760;9.178;2023-06-26T04:50:33;8.43;;;6.28;;
37239;SDS011;23130;48.760;9.178;2023-06-26T04:53:00;6.72;;;6.03;;
37239;SDS011;23130;48.760;9.178;2023-06-26T04:55:26;6.90;;;5.63;;
37239;SDS011;23130;48.760;9.178;2023-06-26T04:57:52;7.25;;;5.90;;
37239;SDS011;23130;48.760;9.178;2023-06-26T05:00:17;7.03;;;6.07;;
37239;SDS011;23130;48.760;9.178;2023-06-26T05:02:43;7.25;;;6.43;;
37239;SDS011;23130;48.760;9.178;2023-06-26T05:05:09;7.50;;;6.75;;
37239;SDS011;23130;48.760;9.178;2023-06-26T05:07:35;7.43;;;6.00;;
37239;SDS011;23130;48.760;9.178;2023-06-26T05:10:01;6.47;;;5.88;;
37239;SDS011;23130;48.760;9.178;2023-06-26T05:12:27;6.90;;;6.20;;
37239;SDS011;23130;48.760;9.178;2023-06-26T05:14:52;7.68;;;6.55;;
37239;SDS011;23130;48.760;9.178;2023-06-26T05:17:18;6.55;;;5.93;;
37239;SDS011;23130;48.760;9.178;2023-06-26T05:19:43;6.75;;;6.05;;
37239;SDS011;23130;48.760;9.178;2023-06-26T05:22:09;6.35;;;5.68;;
37239;SDS011;23130;48.760;9.178;2023-06-26T05:24:37;8.85;;;6.68;;
37239;SDS011;23130;48.760;9.178;2023-06-26T05:27:04;7.32;;;6.63;;
37239;SDS011;23130;48.760;9.178;2023-06-26T05:29:30;7.57;;;6.20;;
37239;SDS011;23130;48.760;9.178;2023-06-26T05:31:57;7.43;;;5.95;;
37239;SDS011;23130;48.760;9.178;2023-06-26T05:34:23;6.97;;;6.25;;
37239;SDS011;23130;48.760;9.178;2023-06-26T05:36:50;7.38;;;6.45;;
37239;SDS011;23130;48.760;9.178;2023-06-26T05:39:17;7.25;;;6.53;;
37239;SDS011;23130;48.760;9.178;2023-06-26T05:41:46;9.30;;;7.00;;
37239;SDS011;23130;48.760;9.178;2023-06-26T05:44:12;7.18;;;6.32;;
37239;SDS011;23130;48.760;9.178;2023-06-26T05:46:37;6.88;;;6.18;;
37239;SDS011;23130;48.760;9.178;2023-06-26T05:49:03;7.82;;;6.47;;
37239;SDS011;23130;48.760;9.178;2023-06-26T05:51:29;6.82;;;6.22;;
37239;SDS011;23130;48.760;9.178;2023-06-26T05:53:54;7.13;;;6.43;;
37239;SDS011;23130;48.760;9.178;2023-06-26T05:56:20;7.88;;;6.45;;
37239;SDS011;23130;48.760;9.178;2023-06-26T05:58:47;6.93;;;6.18;;
37239;SDS011;23130;48.760;9.178;2023-06-26T06:01:13;6.90;;;5.68;;
37239;SDS011;23130;48.760;9.178;2023-06-26T06:03:39;9.68;;;6.20;;
37239;SDS011;23130;48.760;9.178;2023-06-26T06:06:04;8.05;;;5.78;;
37239;SDS011;23130;48.760;9.178;2023-06-26T06:08:30;6.60;;;6.00;;
37239;SDS011;23130;48.760;9.178;2023-06-26T06:10:56;6.38;;;5.78;;
37239;SDS011;23130;48.760;9.178;2023-06-26T06:13:22;6.90;;;6.05;;
37239;SDS011;23130;48.760;9.178;2023-06-26T06:15:48;6.45;;;5.45;;
37239;SDS011;23130;48.760;9.178;2023-06-26T06:18:14;6.85;;;6.13;;
37239;SDS011;23130;48.760;9.178;2023-06-26T06:20:40;6.00;;;5.43;;
37239;SDS011;23130;48.760;9.178;2023-06-26T06:23:05;5.97;;;5.47;;
37239;SDS011;23130;48.760;9.178;2023-06-26T06:25:31;6.07;;;5.50;;
37239;SDS011;23130;48.760;9.178;2023-06-26T06:27:56;5.97;;;5.18;;
37239;SDS011;23130;48.760;9.178;2023-06-26T06:30:22;6.60;;;5.93;;
37239;SDS011;23130;48.760;9.178;2023-06-26T06:32:47;6.13;;;5.60;;
37239;SDS011;23130;48.760;9.178;2023-06-26T06:35:17;5.78;;;5.18;;
37239;SDS011;23130;48.760;9.178;2023-06-26T06:37:45;6.38;;;5.78;;
37239;SDS011;23130;48.760;9.178;2023-06-26T06:40:11;6.38;;;5.75;;
37239;SDS011;23130;48.760;9.178;2023-06-26T06:42:37;6.25;;;5.65;;
37239;SDS011;23130;48.760;9.178;2023-06-26T06:45:03;8.23;;;5.80;;
37239;SDS011;23130;48.760;9.178;2023-06-26T06:47:29;6.10;;;5.53;;
37239;SDS011;23130;48.760;9.178;2023-06-26T06:49:55;7.93;;;5.38;;
37239;SDS011;23130;48.760;9.178;2023-06-26T06:52:21;7.32;;;6.00;;
37239;SDS011;23130;48.760;9.178;2023-06-26T06:54:57;5.47;;;4.97;;
37239;SDS011;23130;48.760;9.178;2023-06-26T06:57:31;7.10;;;6.10;;
37239;SDS011;23130;48.760;9.178;2023-06-26T07:00:01;7.82;;;6.25;;
37239;SDS011;23130;48.760;9.178;2023-06-26T07:02:29;6.13;;;5.40;;
37239;SDS011;23130;48.760;9.178;2023-06-26T07:04:55;7.18;;;6.20;;
37239;SDS011;23130;48.760;9.178;2023-06-26T07:07:20;6.18;;;5.57;;
37239;SDS011;23130;48.760;9.178;2023-06-26T07:09:46;7.57;;;5.68;;
37239;SDS011;23130;48.760;9.178;2023-06-26T07:12:11;6.30;;;5.70;;
37239;SDS011;23130;48.760;9.178;2023-06-26T07:14:38;6.03;;;5.28;;
37239;SDS011;23130;48.760;9.178;2023-06-26T07:17:04;5.53;;;5.03;;
37239;SDS011;23130;48.760;9.178;2023-06-26T07:19:30;8.07;;;5.53;;
37239;SDS011;23130;48.760;9.178;2023-06-26T07:21:55;5.28;;;4.78;;
37239;SDS011;23130;48.760;9.178;2023-06-26T07:24:21;5.78;;;5.20;;
37239;SDS011;23130;48.760;9.178;2023-06-26T07:26:46;7.57;;;5.25;;
37239;SDS011;23130;48.760;9.178;2023-06-26T07:29:12;6.82;;;5.18;;
37239;SDS011;23130;48.760;9.178;2023-06-26T07:31:37;6.20;;;5.63;;
37239;SDS011;23130;48.760;9.178;2023-06-26T07:34:03;6.00;;;5.50;;
37239;SDS011;23130;48.760;9.178;2023-06-26T07:36:29;5.95;;;5.35;;
37239;SDS011;23130;48.760;9.178;2023-06-26T07:38:54;6.22;;;5.35;;
37239;SDS011;23130;48.760;9.178;2023-06-26T07:41:20;7.68;;;6.50;;
37239;SDS011;23130;48.760;9.178;2023-06-26T07:43:45;8.80;;;6.55;;
37239;SDS011;23130;48.760;9.178;2023-06-26T07:46:11;7.38;;;6.38;;
37239;SDS011;23130;48.760;9.178;2023-06-26T07:48:36;9.98;;;6.32;;
37239;SDS011;23130;48.760;9.178;2023-06-26T07:51:02;7.60;;;6.13;;
37239;SDS011;23130;48.760;9.178;2023-06-26T07:53:27;6.82;;;6.13;;
37239;SDS011;23130;48.760;9.178;2023-06-26T07:55:53;9.23;;;6.15;;
37239;SDS011;23130;48.760;9.178;2023-06-26T07:58:18;7.63;;;6.22;;
37239;SDS011;23130;48.760;9.178;2023-06-26T08:00:44;6.53;;;5.53;;
37239;SDS011;23130;48.760;9.178;2023-06-26T08:03:09;6.88;;;5.82;;
37239;SDS011;23130;48.760;9.178;2023-06-26T08:05:35;9.27;;;6.38;;
37239;SDS011;23130;48.760;9.178;2023-06-26T08:08:01;7.07;;;5.55;;
37239;SDS011;23130;48.760;9.178;2023-06-26T08:10:28;6.78;;;6.00;;
37239;SDS011;23130;48.760;9.178;2023-06-26T08:12:54;8.45;;;6.40;;
37239;SDS011;23130;48.760;9.178;2023-06-26T08:15:20;9.30;;;6.07;;
37239;SDS011;23130;48.760;9.178;2023-06-26T08:17:46;7.63;;;6.10;;
37239;SDS011;23130;48.760;9.178;2023-06-26T08:20:12;6.30;;;5.70;;
37239;SDS011;23130;48.760;9.178;2023-06-26T08:22:37;11.55;;;6.40;;
37239;SDS011;23130;48.760;9.178;2023-06-26T08:25:04;7.68;;;5.43;;
37239;SDS011;23130;48.760;9.178;2023-06-26T08:27:31;6.30;;;5.70;;
37239;SDS011;23130;48.760;9.178;2023-06-26T08:29:57;11.30;;;6.93;;
37239;SDS011;23130;48.760;9.178;2023-06-26T08:32:23;6.20;;;5.60;;
37239;SDS011;23130;48.760;9.178;2023-06-26T08:34:49;7.00;;;6.30;;
37239;SDS011;23130;48.760;9.178;2023-06-26T08:37:15;9.18;;;5.82;;
37239;SDS011;23130;48.760;9.178;2023-06-26T08:39:41;8.15;;;5.50;;
37239;SDS011;23130;48.760;9.178;2023-06-26T08:42:06;6.45;;;5.75;;
37239;SDS011;23130;48.760;9.178;2023-06-26T08:44:32;7.30;;;5.85;;
37239;SDS011;23130;48.760;9.178;2023-06-26T08:46:59;7.63;;;5.70;;
37239;SDS011;23130;48.760;9.178;2023-06-26T08:49:28;7.25;;;5.32;;
37239;SDS011;23130;48.760;9.178;2023-06-26T08:52:02;6.93;;;4.60;;
37239;SDS011;23130;48.760;9.178;2023-06-26T08:54:36;6.68;;;5.60;;
37239;SDS011;23130;48.760;9.178;2023-06-26T08:57:10;6.00;;;5.38;;
37239;SDS011;23130;48.760;9.178;2023-06-26T08:59:36;10.55;;;5.25;;
37239;SDS011;23130;48.760;9.178;2023-06-26T09:02:02;10.30;;;5.15;;
37239;SDS011;23130;48.760;9.178;2023-06-26T09:04:28;10.13;;;5.32;;
37239;SDS011;23130;48.760;9.178;2023-06-26T09:06:53;8.05;;;5.68;;
37239;SDS011;23130;48.760;9.178;2023-06-26T09:09:19;6.38;;;5.00;;
37239;SDS011;23130;48.760;9.178;2023-06-26T09:11:45;6.78;;;5.45;;
37239;SDS011;23130;48.760;9.178;2023-06-26T09:14:11;11.88;;;5.38;;
37239;SDS011;23130;48.760;9.178;2023-06-26T09:16:40;6.25;;;4.90;;
37239;SDS011;23130;48.760;9.178;2023-06-26T09:19:10;5.80;;;4.57;;
37239;SDS011;23130;48.760;9.178;2023-06-26T09:21:37;6.03;;;5.43;;
37239;SDS011;23130;48.760;9.178;2023-06-26T09:24:04;5.80;;;5.20;;
37239;SDS011;23130;48.760;9.178;2023-06-26T09:26:32;5.68;;;4.78;;
37239;SDS011;23130;48.760;9.178;2023-06-26T09:28:59;7.53;;;5.57;;
37239;SDS011;23130;48.760;9.178;2023-06-26T09:31:25;6.68;;;4.50;;
37239;SDS011;23130;48.760;9.178;2023-06-26T09:33:58;4.85;;;4.35;;
37239;SDS011;23130;48.760;9.178;2023-06-26T09:36:28;5.28;;;4.78;;
37239;SDS011;23130;48.760;9.178;2023-06-26T09:38:58;6.90;;;4.97;;
37239;SDS011;23130;48.760;9.178;2023-06-26T09:41:24;5.20;;;4.70;;
37239;SDS011;23130;48.760;9.178;2023-06-26T09:43:50;5.15;;;4.65;;
37239;SDS011;23130;48.760;9.178;2023-06-26T09:46:25;6.60;;;4.78;;
37239;SDS011;23130;48.760;9.178;2023-06-26T09:49:01;6.60;;;5.25;;
37239;SDS011;23130;48.760;9.178;2023-06-26T09:51:35;7.82;;;5.13;;
37239;SDS011;23130;48.760;9.178;2023-06-26T09:54:03;5.95;;;4.97;;
37239;SDS011;23130;48.760;9.178;2023-06-26T09:56:30;6.47;;;5.47;;
37239;SDS011;23130;48.760;9.178;2023-06-26T09:58:56;4.70;;;4.20;;
37239;SDS011;23130;48.760;9.178;2023-06-26T10:01:25;5.60;;;5.03;;
37239;SDS011;23130;48.760;9.178;2023-06-26T10:03:51;7.75;;;5.35;;
37239;SDS011;23130;48.760;9.178;2023-06-26T10:06:19;5.93;;;5.38;;
37239;SDS011;23130;48.760;9.178;2023-06-26T10:09:19;6.55;;;5.57;;
37239;SDS011;23130;48.760;9.178;2023-06-26T10:11:47;8.35;;;5.47;;
37239;SDS011;23130;48.760;9.178;2023-06-26T10:14:31;6.22;;;5.03;;
37239;SDS011;23130;48.760;9.178;2023-06-26T10:17:01;6.20;;;5.60;;
37239;SDS011;23130;48.760;9.178;2023-06-26T10:19:33;7.18;;;5.43;;
37239;SDS011;23130;48.760;9.178;2023-06-26T10:22:01;6.15;;;5.55;;
37239;SDS011;23130;48.760;9.178;2023-06-26T10:24:28;6.90;;;5.70;;
37239;SDS011;23130;48.760;9.178;2023-06-26T10:27:18;7.25;;;5.85;;
37239;SDS011;23130;48.760;9.178;2023-06-26T10:29:48;9.00;;;6.30;;
37239;SDS011;23130;48.760;9.178;2023-06-26T10:32:18;6.88;;;6.05;;
37239;SDS011;23130;48.760;9.178;2023-06-26T10:34:45;7.15;;;5.97;;
37239;SDS011;23130;48.760;9.178;2023-06-26T10:37:11;10.65;;;5.95;;
37239;SDS011;23130;48.760;9.178;2023-06-26T10:39:59;10.07;;;6.85;;
37239;SDS011;23130;48.760;9.178;2023-06-26T10:42:34;7.13;;;6.18;;
37239;SDS011;23130;48.760;9.178;2023-06-26T10:45:13;7.15;;;6.45;;
37239;SDS011;23130;48.760;9.178;2023-06-26T10:47:39;13.20;;;6.93;;
37239;SDS011;23130;48.760;9.178;2023-06-26T10:50:19;8.98;;;6.57;;
37239;SDS011;23130;48.760;9.178;2023-06-26T10:53:21;7.15;;;6.30;;
37239;SDS011;23130;48.760;9.178;2023-06-26T10:56:04;6.90;;;6.22;;
37239;SDS011;23130;48.760;9.178;2023-06-26T10:58:34;6.90;;;6.20;;
37239;SDS011;23130;48.760;9.178;2023-06-26T11:03:40;8.15;;;6.47;;
37239;SDS011;23130;48.760;9.178;2023-06-26T11:06:24;6.88;;;5.60;;
37239;SDS011;23130;48.760;9.178;2023-06-26T11:08:53;8.48;;;6.38;;
37239;SDS011;23130;48.760;9.178;2023-06-26T11:11:54;8.98;;;5.88;;
37239;SDS011;23130;48.760;9.178;2023-06-26T11:14:19;7.07;;;6.38;;
37239;SDS011;23130;48.760;9.178;2023-06-26T11:16:45;6.53;;;5.90;;
37239;SDS011;23130;48.760;9.178;2023-06-26T11:19:12;7.53;;;5.82;;
37239;SDS011;23130;48.760;9.178;2023-06-26T11:21:39;7.88;;;5.95;;
37239;SDS011;23130;48.760;9.178;2023-06-26T11:24:05;8.82;;;6.47;;
37239;SDS011;23130;48.760;9.178;2023-06-26T11:26:37;9.63;;;7.00;;
37239;SDS011;23130;48.760;9.178;2023-06-26T11:29:07;7.55;;;6.78;;
37239;SDS011;23130;48.760;9.178;2023-06-26T11:31:34;7.78;;;6.65;;
37239;SDS011;23130;48.760;9.178;2023-06-26T11:34:02;10.13;;;7.25;;
37239;SDS011;23130;48.760;9.178;2023-06-26T11:36:29;9.43;;;6.00;;
37239;SDS011;23130;48.760;9.178;2023-06-26T11:38:56;8.45;;;6.32;;
37239;SDS011;23130;48.760;9.178;2023-06-26T11:41:23;7.63;;;6.45;;
37239;SDS011;23130;48.760;9.178;2023-06-26T11:43:51;11.85;;;6.60;;
37239;SDS011;23130;48.760;9.178;2023-06-26T11:46:17;7.30;;;5.53;;
37239;SDS011;23130;48.760;9.178;2023-06-26T11:48:44;7.10;;;5.85;;
37239;SDS011;23130;48.760;9.178;2023-06-26T11:51:12;7.78;;;6.57;;
37239;SDS011;23130;48.760;9.178;2023-06-26T11:53:39;7.80;;;6.80;;
37239;SDS011;23130;48.760;9.178;2023-06-26T11:56:07;7.00;;;6.30;;
37239;SDS011;23130;48.760;9.178;2023-06-26T11:58:54;9.60;;;5.72;;
37239;SDS011;23130;48.760;9.178;2023-06-26T12:01:37;7.60;;;6.40;;
37239;SDS011;23130;48.760;9.178;2023-06-26T12:04:08;7.13;;;6.40;;
37239;SDS011;23130;48.760;9.178;2023-06-26T12:06:37;7.88;;;6.47;;
37239;SDS011;23130;48.760;9.178;2023-06-26T12:09:05;7.13;;;6.25;;
37239;SDS011;23130;48.760;9.178;2023-06-26T12:11:34;8.70;;;6.05;;
37239;SDS011;23130;48.760;9.178;2023-06-26T12:14:00;7.35;;;5.75;;
37239;SDS011;23130;48.760;9.178;2023-06-26T12:16:29;8.15;;;6.85;;
37239;SDS011;23130;48.760;9.178;2023-06-26T12:19:02;11.63;;;5.90;;
37239;SDS011;23130;48.760;9.178;2023-06-26T12:24:05;8.73;;;6.10;;
37239;SDS011;23130;48.760;9.178;2023-06-26T12:26:32;10.45;;;6.75;;
37239;SDS011;23130;48.760;9.178;2023-06-26T12:29:05;7.15;;;6.25;;
37239;SDS011;23130;48.760;9.178;2023-06-26T12:31:32;8.43;;;6.22;;
37239;SDS011;23130;48.760;9.178;2023-06-26T12:33:58;8.13;;;7.15;;
37239;SDS011;23130;48.760;9.178;2023-06-26T12:36:24;7.53;;;5.63;;
37239;SDS011;23130;48.760;9.178;2023-06-26T12:38:53;7.90;;;6.28;;
37239;SDS011;23130;48.760;9.178;2023-06-26T12:41:19;7.50;;;6.43;;
37239;SDS011;23130;48.760;9.178;2023-06-26T12:43:45;10.27;;;6.18;;
37239;SDS011;23130;48.760;9.178;2023-06-26T12:46:11;8.02;;;6.18;;
37239;SDS011;23130;48.760;9.178;2023-06-26T12:48:38;11.85;;;7.03;;
37239;SDS011;23130;48.760;9.178;2023-06-26T12:51:11;7.80;;;6.22;;
37239;SDS011;23130;48.760;9.178;2023-06-26T12:53:38;7.63;;;5.97;;
37239;SDS011;23130;48.760;9.178;2023-06-26T12:56:05;7.72;;;6.38;;
37239;SDS011;23130;48.760;9.178;2023-06-26T12:58:31;6.75;;;6.05;;
37239;SDS011;23130;48.760;9.178;2023-06-26T13:00:57;9.13;;;5.93;;
37239;SDS011;23130;48.760;9.178;2023-06-26T13:03:22;8.55;;;6.45;;
37239;SDS011;23130;48.760;9.178;2023-06-26T13:05:48;6.30;;;5.57;;
37239;SDS011;23130;48.760;9.178;2023-06-26T13:08:14;6.65;;;5.68;;
37239;SDS011;23130;48.760;9.178;2023-06-26T13:10:42;7.57;;;6.68;;
37239;SDS011;23130;48.760;9.178;2023-06-26T13:13:08;9.30;;;6.55;;
37239;SDS011;23130;48.760;9.178;2023-06-26T13:15:34;7.97;;;6.10;;
37239;SDS011;23130;48.760;9.178;2023-06-26T13:18:00;8.85;;;6.82;;
37239;SDS011;23130;48.760;9.178;2023-06-26T13:20:26;9.90;;;6.93;;
37239;SDS011;23130;48.760;9.178;2023-06-26T13:22:51;6.60;;;5.75;;
37239;SDS011;23130;48.760;9.178;2023-06-26T13:25:18;7.72;;;6.00;;
37239;SDS011;23130;48.760;9.178;2023-06-26T13:27:44;7.75;;;5.97;;
37239;SDS011;23130;48.760;9.178;2023-06-26T13:30:09;7.82;;;5.70;;
37239;SDS011;23130;48.760;9.178;2023-06-26T13:32:35;11.77;;;6.13;;
37239;SDS011;23130;48.760;9.178;2023-06-26T13:35:01;8.27;;;5.38;;
37239;SDS011;23130;48.760;9.178;2023-06-26T13:37:27;7.38;;;5.97;;
37239;SDS011;23130;48.760;9.178;2023-06-26T13:39:52;7.55;;;5.78;;
37239;SDS011;23130;48.760;9.178;2023-06-26T13:42:18;6.93;;;5.47;;
37239;SDS011;23130;48.760;9.178;2023-06-26T13:44:43;9.63;;;5.05;;
37239;SDS011;23130;48.760;9.178;2023-06-26T13:47:13;9.27;;;5.85;;
37239;SDS011;23130;48.760;9.178;2023-06-26T13:49:40;7.15;;;5.60;;
37239;SDS011;23130;48.760;9.178;2023-06-26T13:52:05;8.05;;;5.93;;
37239;SDS011;23130;48.760;9.178;2023-06-26T13:54:35;7.50;;;5.10;;
37239;SDS011;23130;48.760;9.178;2023-06-26T13:57:01;7.18;;;5.60;;
37239;SDS011;23130;48.760;9.178;2023-06-26T13:59:30;5.72;;;4.72;;
37239;SDS011;23130;48.760;9.178;2023-06-26T14:01:55;5.60;;;4.85;;
37239;SDS011;23130;48.760;9.178;2023-06-26T14:04:21;6.45;;;5.05;;
37239;SDS011;23130;48.760;9.178;2023-06-26T14:06:47;9.02;;;5.60;;
37239;SDS011;23130;48.760;9.178;2023-06-26T14:09:12;6.65;;;5.18;;
37239;SDS011;23130;48.760;9.178;2023-06-26T14:11:38;7.57;;;4.65;;
37239;SDS011;23130;48.760;9.178;2023-06-26T14:14:04;6.82;;;4.93;;
37239;SDS011;23130;48.760;9.178;2023-06-26T14:16:29;6.00;;;4.30;;
37239;SDS011;23130;48.760;9.178;2023-06-26T14:18:56;4.85;;;4.07;;
37239;SDS011;23130;48.760;9.178;2023-06-26T14:21:22;6.38;;;4.32;;
37239;SDS011;23130;48.760;9.178;2023-06-26T14:23:48;5.90;;;4.03;;
37239;SDS011;23130;48.760;9.178;2023-06-26T14:26:13;5.93;;;3.75;;
37239;SDS011;23130;48.760;9.178;2023-06-26T14:28:39;5.45;;;4.03;;
37239;SDS011;23130;48.760;9.178;2023-06-26T14:31:05;5.18;;;4.15;;
37239;SDS011;23130;48.760;9.178;2023-06-26T14:33:30;5.43;;;3.80;;
37239;SDS011;23130;48.760;9.178;2023-06-26T14:35:56;5.20;;;3.42;;
37239;SDS011;23130;48.760;9.178;2023-06-26T14:38:22;7.47;;;4.13;;
37239;SDS011;23130;48.760;9.178;2023-06-26T14:40:47;7.18;;;3.60;;
37239;SDS011;23130;48.760;9.178;2023-06-26T14:43:13;6.72;;;3.50;;
37239;SDS011;23130;48.760;9.178;2023-06-26T14:45:38;4.28;;;3.55;;
37239;SDS011;23130;48.760;9.178;2023-06-26T14:48:04;5.38;;;3.25;;
37239;SDS011;23130;48.760;9.178;2023-06-26T14:50:30;3.92;;;2.88;;
37239;SDS011;23130;48.760;9.178;2023-06-26T14:52:56;4.63;;;2.70;;
37239;SDS011;23130;48.760;9.178;2023-06-26T14:55:22;4.18;;;3.05;;
37239;SDS011;23130;48.760;9.178;2023-06-26T14:57:47;5.72;;;3.72;;
37239;SDS011;23130;48.760;9.178;2023-06-26T15:00:13;3.55;;;2.97;;